Time;durP1;ratioP1;P1;durP2;ratioP2;P2;SDS_P1;SDS_P2;PMS_P1;PMS_P2;Temp;Humidity;BMP_temperature;BMP_pressure;BME280_temperature;BME280_humidity;BME280_pressure;Samples;Min_cycle;Max_cycle;Signal;HPM_P1;HPM_P2
2022/04/21 00:00:25;;;;;;;6.60;3.25;;;;;;;8.85;47.91;99598.94;10334768;28;20065;-77
2022/04/21 00:05:27;;;;;;;6.68;3.30;;;;;;;8.77;48.13;99586.31;10325280;28;20046;-77
2022/04/21 00:10:30;;;;;;;5.10;3.30;;;;;;;8.63;48.36;99591.47;10333310;28;20058;-77
2022/04/21 00:15:32;;;;;;;7.90;4.07;;;;;;;8.49;48.59;99588.81;10326754;28;20856;-78
2022/04/21 00:20:34;;;;;;;7.22;3.60;;;;;;;8.50;48.80;99584.47;10332634;28;20058;-77
2022/04/21 00:25:37;;;;;;;6.72;3.60;;;;;;;8.54;48.31;99586.81;10320163;28;20054;-77
2022/04/21 00:30:39;;;;;;;7.00;3.83;;;;;;;8.48;48.47;99584.56;10327718;28;20070;-77
2022/04/21 00:35:41;;;;;;;5.95;3.80;;;;;;;8.40;48.58;99580.69;10321257;28;20050;-77
2022/04/21 00:40:43;;;;;;;5.72;3.42;;;;;;;8.30;48.97;99571.72;10327738;28;20473;-77
2022/04/21 00:45:45;;;;;;;7.28;4.05;;;;;;;8.25;49.08;99571.13;10322379;28;20052;-77
2022/04/21 00:50:47;;;;;;;6.80;3.80;;;;;;;8.25;49.21;99564.16;10328132;28;20050;-77
2022/04/21 00:55:49;;;;;;;7.03;3.75;;;;;;;8.26;49.29;99557.19;10322734;28;20153;-77
2022/04/21 01:00:51;;;;;;;8.32;3.92;;;;;;;8.23;49.45;99562.56;10324636;28;20057;-77
2022/04/21 01:05:53;;;;;;;7.00;4.22;;;;;;;8.19;49.68;99561.03;10331166;28;20127;-77
2022/04/21 01:10:55;;;;;;;6.53;3.88;;;;;;;8.12;49.64;99555.34;10324498;28;20706;-77
2022/04/21 01:15:56;;;;;;;7.10;4.10;;;;;;;8.15;49.72;99552.56;10326060;28;20411;-77
2022/04/21 01:20:59;;;;;;;6.93;3.85;;;;;;;8.17;49.66;99560.28;10326014;28;20139;-77
2022/04/21 01:26:02;;;;;;;6.05;3.72;;;;;;;8.11;50.03;99555.41;10322887;28;20133;-77
2022/04/21 01:31:04;;;;;;;9.27;3.75;;;;;;;7.89;50.58;99554.00;10329944;28;20058;-77
2022/04/21 01:36:06;;;;;;;7.18;3.65;;;;;;;7.85;50.36;99547.25;10328302;28;20688;-77
2022/04/21 01:41:11;;;;;;;9.05;3.83;;;;;;;7.74;50.89;99539.19;10323163;28;20458;-77
2022/04/21 01:46:13;;;;;;;5.55;3.90;;;;;;;7.64;51.18;99540.63;10319127;28;20057;-77
2022/04/21 01:51:15;;;;;;;6.82;4.53;;;;;;;7.45;51.58;99544.28;10314643;28;20065;-78
2022/04/21 01:56:17;;;;;;;7.18;3.88;;;;;;;7.24;51.94;99551.47;10326400;28;20143;-77
2022/04/21 02:01:19;;;;;;;8.60;4.50;;;;;;;7.20;52.09;99549.94;10321147;28;20159;-77
2022/04/21 02:06:21;;;;;;;6.82;4.25;;;;;;;7.16;52.23;99551.03;10329125;28;20050;-77
2022/04/21 02:11:22;;;;;;;8.25;4.00;;;;;;;7.01;52.60;99542.25;10331230;28;20859;-77
2022/04/21 02:16:24;;;;;;;6.03;4.28;;;;;;;6.90;52.99;99544.53;10328273;28;20512;-77
2022/04/21 02:21:26;;;;;;;8.68;4.53;;;;;;;6.68;53.41;99538.75;10323353;28;20149;-77
2022/04/21 02:26:28;;;;;;;6.03;4.03;;;;;;;6.62;53.50;99541.66;10329346;28;20049;-77
2022/04/21 02:31:30;;;;;;;6.68;4.38;;;;;;;6.71;53.35;99530.81;10332632;28;20097;-77
2022/04/21 02:36:32;;;;;;;11.13;4.47;;;;;;;6.75;53.23;99529.75;10336066;28;20160;-77
2022/04/21 02:41:34;;;;;;;7.55;5.03;;;;;;;6.72;53.30;99523.84;10328989;28;20385;-77
2022/04/21 02:46:36;;;;;;;8.43;4.07;;;;;;;6.66;53.59;99526.75;10331164;28;20145;-77
2022/04/21 02:51:38;;;;;;;5.85;4.03;;;;;;;6.64;53.87;99515.59;10328384;28;21720;-77
2022/04/21 03:02:00;;;;;;;8.63;4.95;;;;;;;6.28;54.11;99508.72;10333894;28;20087;-77
2022/04/21 03:07:02;;;;;;;9.20;4.57;;;;;;;6.21;54.23;99512.47;10317287;28;20432;-77
2022/04/21 03:12:05;;;;;;;5.68;4.40;;;;;;;6.22;54.48;99501.19;10321599;28;20054;-77
2022/04/21 03:17:10;;;;;;;10.20;4.88;;;;;;;6.09;55.12;99497.50;10324639;28;20097;-77
2022/04/21 03:27:53;;;;;;;8.07;5.40;;;;;;;6.07;54.76;99507.13;10259839;28;20082;-77
2022/04/21 03:32:55;;;;;;;7.68;5.53;;;;;;;6.02;54.72;99508.25;10301268;28;20089;-77
2022/04/21 03:37:57;;;;;;;7.57;5.18;;;;;;;5.96;55.02;99506.78;10323968;28;20500;-77
2022/04/21 03:42:58;;;;;;;6.38;4.78;;;;;;;5.92;55.17;99507.03;10328577;28;20050;-77
2022/04/21 03:48:01;;;;;;;8.75;5.10;;;;;;;5.77;55.55;99518.97;10318820;28;20503;-77
2022/04/21 03:53:04;;;;;;;7.63;4.60;;;;;;;5.71;55.62;99516.66;10328345;28;20105;-77
2022/04/21 03:58:05;;;;;;;9.25;4.63;;;;;;;5.61;55.87;99512.81;10320774;28;20060;-77
2022/04/21 04:03:07;;;;;;;8.27;4.72;;;;;;;5.62;55.97;99513.63;10325639;28;20054;-77
2022/04/21 04:13:29;;;;;;;7.80;4.88;;;;;;;5.50;56.30;99512.44;10326084;28;20144;-77
2022/04/21 04:18:31;;;;;;;9.55;5.20;;;;;;;5.45;56.38;99517.00;10325648;28;20120;-77
2022/04/21 04:23:33;;;;;;;8.18;5.28;;;;;;;5.41;56.53;99526.66;10337842;28;20058;-77
2022/04/21 04:28:34;;;;;;;6.30;4.90;;;;;;;5.39;56.52;99518.09;10330038;28;20078;-76
2022/04/21 04:33:36;;;;;;;5.75;4.75;;;;;;;5.45;56.60;99522.19;10334948;28;20863;-76
2022/04/21 04:38:38;;;;;;;6.82;4.63;;;;;;;5.52;56.44;99528.78;10338901;28;20062;-76
2022/04/21 04:43:40;;;;;;;8.40;4.90;;;;;;;5.61;56.20;99528.38;10321487;28;20108;-76
2022/04/21 04:48:41;;;;;;;7.45;4.93;;;;;;;5.60;56.41;99521.47;10329247;28;20053;-76
2022/04/21 04:53:43;;;;;;;6.97;4.63;;;;;;;5.75;55.87;99520.78;10328025;28;20053;-76
2022/04/21 04:58:45;;;;;;;6.72;4.55;;;;;;;5.93;55.63;99519.06;10333716;28;20149;-76
2022/04/21 05:03:46;;;;;;;6.82;4.70;;;;;;;5.99;55.60;99524.81;10320595;28;20571;-76
2022/04/21 05:08:48;;;;;;;7.60;4.88;;;;;;;6.07;55.49;99520.09;10328278;28;20054;-76
2022/04/21 05:14:15;;;;;;;6.38;4.47;;;;;;;6.11;56.00;99519.03;10321948;28;21159;-76
2022/04/21 05:19:20;;;;;;;6.00;4.45;;;;;;;6.37;55.26;99514.38;10324339;28;20081;-76
2022/04/21 05:24:24;;;;;;;6.80;4.80;;;;;;;6.59;54.89;99510.66;10334478;28;20109;-76
2022/04/21 05:34:47;;;;;;;8.35;4.97;;;;;;;6.86;54.49;99516.16;10324251;28;20493;-76
2022/04/21 05:39:49;;;;;;;8.75;4.95;;;;;;;6.95;54.19;99516.56;10327155;28;20566;-76
2022/04/21 05:44:54;;;;;;;7.78;4.68;;;;;;;7.05;54.23;99516.91;10330042;28;20090;-76
2022/04/21 05:49:56;;;;;;;8.27;4.60;;;;;;;7.20;53.90;99519.56;10334031;28;20058;-76
2022/04/21 05:54:58;;;;;;;5.93;4.50;;;;;;;7.31;54.10;99515.53;10329000;28;20120;-76
2022/04/21 05:59:59;;;;;;;6.93;4.50;;;;;;;7.47;53.65;99506.84;10333885;28;20141;-76
2022/04/21 06:05:01;;;;;;;8.73;5.28;;;;;;;7.45;53.88;99508.69;10333870;28;20073;-76
2022/04/21 06:10:03;;;;;;;8.65;4.78;;;;;;;7.58;53.78;99498.47;10327865;28;20093;-76
2022/04/21 06:15:05;;;;;;;7.70;4.25;;;;;;;7.60;53.79;99502.66;10322771;28;20149;-76
2022/04/21 06:20:08;;;;;;;6.43;4.45;;;;;;;7.78;53.42;99495.59;10330886;28;21357;-76
2022/04/21 06:25:10;;;;;;;9.20;4.90;;;;;;;7.98;53.12;99495.34;10323478;28;20074;-76
2022/04/21 06:30:12;;;;;;;8.40;4.97;;;;;;;8.28;52.48;99487.59;10323614;28;20180;-76
2022/04/21 06:35:13;;;;;;;8.55;5.07;;;;;;;8.50;52.04;99488.88;10324569;28;20726;-76
2022/04/21 06:40:16;;;;;;;9.50;5.30;;;;;;;8.79;51.55;99487.16;10322844;28;20074;-76
2022/04/21 06:50:39;;;;;;;7.15;5.10;;;;;;;9.21;50.69;99486.34;10335373;28;20104;-76
2022/04/21 06:55:41;;;;;;;8.50;5.18;;;;;;;9.17;50.48;99487.47;10322879;28;20570;-77
2022/04/21 07:00:43;;;;;;;10.48;5.22;;;;;;;9.46;49.83;99483.91;10324691;28;20058;-76
2022/04/21 07:05:44;;;;;;;11.95;5.00;;;;;;;9.41;49.66;99486.78;10321618;28;20067;-76
2022/04/21 07:10:46;;;;;;;8.30;4.57;;;;;;;9.63;49.74;99489.75;10330638;28;20146;-77
2022/04/21 07:15:48;;;;;;;11.13;5.00;;;;;;;9.60;48.88;99483.88;10328415;28;20054;-77
2022/04/21 07:20:50;;;;;;;8.32;4.55;;;;;;;9.66;48.52;99483.53;10321439;28;20061;-76
2022/04/21 07:25:51;;;;;;;7.93;4.63;;;;;;;9.74;48.32;99485.66;10326536;28;20128;-76
2022/04/21 07:30:53;;;;;;;11.15;4.55;;;;;;;10.00;47.77;99484.81;10324368;28;20533;-76
2022/04/21 07:35:55;;;;;;;7.68;4.50;;;;;;;10.66;47.16;99484.78;10329887;28;20077;-77
2022/04/21 07:40:57;;;;;;;7.30;4.45;;;;;;;11.92;44.79;99477.63;10329499;28;20061;-76
2022/04/21 07:46:00;;;;;;;7.20;4.30;;;;;;;12.87;42.10;99473.09;10328180;28;20050;-76
2022/04/21 07:51:02;;;;;;;10.18;3.70;;;;;;;13.72;41.03;99459.38;10327416;28;20049;-76
2022/04/21 07:56:04;;;;;;;7.47;3.97;;;;;;;14.68;38.97;99458.44;10322806;28;20129;-77
2022/04/21 08:01:06;;;;;;;10.55;3.95;;;;;;;14.78;39.06;99466.41;10324318;28;20051;-77
2022/04/21 08:06:08;;;;;;;9.15;3.78;;;;;;;15.18;37.87;99459.41;10330209;28;20057;-77
2022/04/21 08:11:10;;;;;;;7.13;3.70;;;;;;;14.96;37.66;99468.28;10323973;28;20437;-77
2022/04/21 08:16:12;;;;;;;6.85;3.65;;;;;;;14.39;38.85;99466.09;10319080;28;20124;-77
2022/04/21 08:21:14;;;;;;;6.80;3.80;;;;;;;13.69;38.98;99470.16;10323742;28;20606;-76
2022/04/21 08:37:00;;;;;;;;;;;;;;;13.23;39.35;99457.13;10325802;28;20054;-76
2022/04/21 08:42:10;;;;;;;5.93;3.60;;;;;;;13.66;39.92;99455.47;10325390;28;19944;-76
2022/04/21 08:47:14;;;;;;;;;;;;;;;13.53;39.45;99448.69;10322349;28;20046;-77
2022/04/21 08:52:17;;;;;;;6.97;3.53;;;;;;;13.58;39.73;99444.72;10323719;28;19995;-78
2022/04/21 08:57:19;;;;;;;7.20;3.58;;;;;;;14.17;38.75;99436.41;10327406;28;20077;-77
2022/04/21 09:02:20;;;;;;;5.80;3.63;;;;;;;13.94;38.81;99435.69;10321165;28;20065;-78
2022/04/21 09:07:22;;;;;;;7.63;3.65;;;;;;;14.31;38.17;99429.06;10326118;28;20058;-78
2022/04/21 09:12:24;;;;;;;5.80;3.88;;;;;;;14.53;37.66;99431.59;10326671;28;20144;-78
2022/04/21 09:17:26;;;;;;;6.50;3.45;;;;;;;14.51;37.44;99425.63;10320989;28;20073;-78
2022/04/21 09:22:32;;;;;;;9.43;3.70;;;;;;;14.27;37.39;99429.44;10336767;28;20057;-78
2022/04/21 09:27:42;;;;;;;7.68;3.30;;;;;;;15.46;35.71;99424.41;10325144;28;20074;-78
2022/04/21 09:32:58;;;;;;;7.90;3.53;;;;;;;14.73;36.00;99429.09;10320210;28;20113;-78
2022/04/21 09:38:05;;;;;;;6.80;3.42;;;;;;;15.14;36.96;99408.78;10324853;28;20122;-77
2022/04/21 09:43:07;;;;;;;7.75;3.25;;;;;;;15.78;35.74;99400.50;10326616;28;20073;-78
2022/04/21 09:48:09;;;;;;;7.70;3.10;;;;;;;16.06;34.59;99387.34;10329928;28;20089;-78
2022/04/21 09:53:11;;;;;;;6.28;3.13;;;;;;;16.22;34.14;99389.44;10324077;28;20113;-78
2022/04/21 09:58:14;;;;;;;6.07;2.88;;;;;;;16.15;33.75;99375.13;10319340;28;20077;-77
2022/04/21 10:03:16;;;;;;;5.95;2.90;;;;;;;16.45;33.49;99376.75;10320619;28;20511;-78
2022/04/21 10:08:19;;;;;;;6.78;2.88;;;;;;;16.44;33.39;99372.47;10333383;28;20050;-79
2022/04/21 10:13:21;;;;;;;6.40;2.50;;;;;;;16.11;33.64;99371.94;10326171;28;20057;-78
2022/04/21 10:18:24;;;;;;;5.50;2.50;;;;;;;15.74;33.26;99367.47;10324354;28;20101;-79
2022/04/21 10:23:28;;;;;;;5.63;2.70;;;;;;;15.70;34.11;99368.72;10326230;28;20081;-78
2022/04/21 10:28:41;;;;;;;7.40;2.63;;;;;;;16.03;33.20;99348.06;10315795;28;20538;-78
2022/04/21 10:33:53;;;;;;;4.53;2.50;;;;;;;15.93;33.16;99347.25;10336121;28;20479;-78
2022/04/21 10:39:22;;;;;;;5.22;2.58;;;;;;;16.14;31.50;99345.25;10315294;28;21075;-78
2022/04/21 10:44:27;;;;;;;5.55;2.75;;;;;;;16.26;31.97;99338.03;10325674;28;20124;-77
2022/04/21 10:49:55;;;;;;;6.28;2.80;;;;;;;15.98;31.35;99331.81;10319821;28;20054;-78
2022/04/21 11:00:31;;;;;;;10.50;2.88;;;;;;;15.37;34.09;99325.09;10325374;28;20107;-77
2022/04/21 11:05:39;;;;;;;4.13;2.55;;;;;;;15.41;34.44;99322.06;10320973;28;20799;-78
2022/04/21 11:10:43;;;;;;;7.78;2.47;;;;;;;15.50;33.06;99322.22;10317593;28;20192;-77
2022/04/21 11:15:49;;;;;;;7.65;2.60;;;;;;;15.53;33.91;99319.34;10322554;28;20754;-76
2022/04/21 11:20:52;;;;;;;5.82;2.30;;;;;;;15.48;33.92;99316.22;10335260;28;20142;-77
2022/04/21 11:26:05;;;;;;;6.50;2.40;;;;;;;15.69;32.50;99315.19;10314734;28;20050;-77
2022/04/21 11:31:07;;;;;;;5.57;2.38;;;;;;;15.65;33.22;99302.41;10330151;28;20059;-77
2022/04/21 11:36:11;;;;;;;4.88;2.50;;;;;;;15.58;32.72;99306.56;10330784;28;20050;-77
2022/04/21 11:41:14;;;;;;;8.38;2.50;;;;;;;15.75;32.34;99296.16;10328764;28;20650;-77
2022/04/21 11:46:20;;;;;;;4.97;2.50;;;;;;;15.71;33.20;99293.94;10318617;28;20085;-76
2022/04/21 11:51:24;;;;;;;5.07;2.53;;;;;;;15.67;33.69;99287.28;10327379;28;20081;-77
2022/04/21 11:56:27;;;;;;;5.78;2.38;;;;;;;15.88;33.93;99280.88;10322902;28;20404;-78
2022/04/21 12:06:52;;;;;;;9.15;2.75;;;;;;;16.21;33.25;99261.94;10326077;28;20053;-78
2022/04/21 12:11:57;;;;;;;3.70;2.38;;;;;;;16.84;33.51;99264.75;10324062;28;20537;-77
2022/04/21 12:17:03;;;;;;;5.97;2.70;;;;;;;17.18;33.51;99249.94;10328222;28;20054;-77
2022/04/21 12:22:07;;;;;;;4.35;2.47;;;;;;;16.91;34.01;99256.13;10324030;28;20053;-77
2022/04/21 12:27:19;;;;;;;4.63;2.40;;;;;;;17.43;34.53;99245.75;10334114;28;20558;-78
2022/04/21 12:32:35;;;;;;;6.40;2.63;;;;;;;17.47;31.99;99250.59;10317202;28;20123;-78
2022/04/21 12:43:25;;;;;;;4.28;2.20;;;;;;;17.13;32.34;99231.09;10325085;28;20069;-79
2022/04/21 12:48:28;;;;;;;4.55;2.45;;;;;;;17.41;33.48;99231.88;10324969;28;20431;-79
2022/04/21 12:53:31;;;;;;;3.67;2.28;;;;;;;16.96;33.67;99224.78;10336494;28;20468;-79
2022/04/21 12:58:33;;;;;;;6.60;2.28;;;;;;;17.31;33.51;99216.06;10325416;28;20054;-79
2022/04/21 13:03:36;;;;;;;4.75;2.40;;;;;;;17.28;32.41;99208.41;10324085;28;20128;-77
2022/04/21 13:08:38;;;;;;;5.35;2.50;;;;;;;16.95;33.07;99201.19;10323166;28;20618;-77
2022/04/21 13:13:40;;;;;;;5.43;2.35;;;;;;;17.17;33.41;99200.72;10326932;28;20112;-77
2022/04/21 13:18:42;;;;;;;6.57;2.60;;;;;;;17.03;33.62;99207.38;10317520;28;20050;-77
2022/04/21 13:23:43;;;;;;;7.55;2.63;;;;;;;16.82;33.94;99184.84;10322151;28;20141;-77
2022/04/21 13:28:46;;;;;;;6.32;2.60;;;;;;;16.41;33.99;99187.97;10324253;28;20512;-77
2022/04/21 13:33:48;;;;;;;4.32;2.40;;;;;;;16.30;34.20;99170.53;10318066;28;20065;-77
2022/04/21 13:38:53;;;;;;;5.03;2.40;;;;;;;16.57;34.74;99164.47;10320149;28;20132;-77
2022/04/21 13:43:55;;;;;;;4.57;2.20;;;;;;;16.83;34.82;99168.03;10323901;28;20472;-77
2022/04/21 13:49:17;;;;;;;5.30;2.30;;;;;;;16.29;35.00;99165.38;10319250;28;20129;-77
2022/04/21 13:54:19;;;;;;;6.00;2.15;;;;;;;16.16;34.79;99165.75;10329581;28;20093;-79
2022/04/21 13:59:21;;;;;;;4.93;2.40;;;;;;;16.58;35.33;99169.59;10316907;28;20132;-78
2022/04/21 14:04:23;;;;;;;4.80;1.92;;;;;;;16.73;34.70;99162.00;10318307;28;20141;-78
2022/04/21 14:09:26;;;;;;;8.02;1.90;;;;;;;16.86;34.36;99157.16;10329658;28;20087;-78
2022/04/21 14:14:28;;;;;;;5.32;2.00;;;;;;;17.28;34.21;99155.56;10324667;28;20535;-78
2022/04/21 14:19:32;;;;;;;4.47;2.15;;;;;;;17.40;32.82;99141.19;10322157;28;20515;-78
2022/04/21 14:24:34;;;;;;;4.57;1.92;;;;;;;17.40;33.61;99143.00;10318099;28;20585;-79
2022/04/21 14:29:37;;;;;;;3.80;2.17;;;;;;;17.10;34.00;99141.53;10315504;28;20602;-79
2022/04/21 14:34:39;;;;;;;5.70;2.10;;;;;;;17.07;34.30;99143.66;10307442;28;20508;-79
2022/04/21 14:45:02;;;;;;;;;;;;;;;17.11;35.23;99127.34;10317976;28;20401;-79
2022/04/21 14:50:05;;;;;;;6.82;1.80;;;;;;;17.26;34.64;99127.66;10329975;28;19961;-78
2022/04/21 14:55:08;;;;;;;4.45;1.83;;;;;;;16.96;34.61;99121.78;10320003;28;20057;-78
2022/04/21 15:00:11;;;;;;;4.25;1.92;;;;;;;16.99;34.50;99123.28;10320251;28;20133;-78
2022/04/21 15:05:13;;;;;;;4.32;1.80;;;;;;;16.96;34.18;99120.94;10321804;28;20609;-78
2022/04/21 15:10:15;;;;;;;6.88;2.10;;;;;;;16.81;34.74;99117.19;10324470;28;20132;-79
2022/04/21 15:15:18;;;;;;;4.32;2.10;;;;;;;16.69;34.65;99121.03;10316720;28;20107;-78
2022/04/21 15:20:20;;;;;;;3.75;1.70;;;;;;;16.75;34.91;99131.00;10323029;28;20109;-79
2022/04/21 15:25:22;;;;;;;4.60;1.92;;;;;;;16.62;35.22;99122.59;10321695;28;20144;-78
2022/04/21 15:30:25;;;;;;;7.05;2.22;;;;;;;16.75;35.38;99125.72;10315083;28;20489;-78
2022/04/21 15:35:27;;;;;;;5.82;2.35;;;;;;;16.56;35.59;99110.00;10312506;28;20057;-78
2022/04/21 15:40:29;;;;;;;5.43;2.35;;;;;;;16.48;35.53;99108.09;10314539;28;20061;-78
2022/04/21 15:45:31;;;;;;;5.95;2.67;;;;;;;16.11;36.39;99118.69;10326204;28;20054;-78
2022/04/21 15:50:34;;;;;;;5.70;2.60;;;;;;;16.11;36.68;99110.78;10320009;28;20074;-78
2022/04/21 16:00:56;;;;;;;5.43;2.45;;;;;;;16.18;37.11;99109.19;10316308;28;20066;-78
2022/04/21 16:05:58;;;;;;;6.50;2.53;;;;;;;16.24;36.77;99115.72;10330809;28;20057;-78
2022/04/21 16:11:00;;;;;;;6.05;2.75;;;;;;;16.09;37.06;99110.09;10329142;28;20054;-77
2022/04/21 16:16:02;;;;;;;8.93;3.00;;;;;;;15.95;37.29;99118.47;10336476;28;20805;-78
2022/04/21 16:21:05;;;;;;;4.70;2.90;;;;;;;16.12;37.58;99122.97;10331279;28;20057;-78
2022/04/21 16:26:09;;;;;;;5.28;3.00;;;;;;;15.76;37.59;99117.72;10325168;28;20052;-77
2022/04/21 16:31:12;;;;;;;7.50;2.90;;;;;;;15.71;37.92;99126.06;10327669;28;20152;-79
2022/04/21 16:36:14;;;;;;;8.13;2.70;;;;;;;15.65;37.88;99126.66;10328666;28;20054;-79
2022/04/21 16:41:17;;;;;;;9.23;2.88;;;;;;;15.68;38.20;99121.06;10329495;28;20137;-77
2022/04/21 16:46:19;;;;;;;5.68;2.58;;;;;;;15.48;38.75;99123.84;10328667;28;20500;-78
2022/04/21 16:51:27;;;;;;;4.55;2.47;;;;;;;15.22;38.88;99136.81;10320180;28;20133;-79
2022/04/21 16:56:30;;;;;;;10.05;2.95;;;;;;;15.04;39.11;99135.84;10337691;28;20053;-79
2022/04/21 17:06:52;;;;;;;5.80;2.22;;;;;;;14.88;39.18;99130.31;10323720;28;20050;-79
2022/04/21 17:11:54;;;;;;;3.95;2.05;;;;;;;14.91;39.09;99127.38;10326691;28;20058;-80
2022/04/21 17:16:56;;;;;;;8.00;2.30;;;;;;;14.63;39.53;99141.34;10328672;28;20241;-79
2022/04/21 17:21:59;;;;;;;5.72;2.33;;;;;;;14.69;39.74;99139.00;10327373;28;20512;-79
2022/04/21 17:27:02;;;;;;;6.72;2.63;;;;;;;14.67;40.00;99133.06;10322852;28;20092;-79
2022/04/21 17:32:04;;;;;;;4.80;2.72;;;;;;;14.48;40.50;99148.75;10326237;28;20089;-79
2022/04/21 17:37:06;;;;;;;4.57;2.50;;;;;;;14.29;41.12;99153.97;10324693;28;20136;-78
2022/04/21 17:42:08;;;;;;;5.45;2.90;;;;;;;14.22;41.11;99153.69;10327752;28;20086;-78
2022/04/21 17:47:10;;;;;;;5.47;2.72;;;;;;;14.06;41.34;99153.34;10324793;28;20046;-78
2022/04/21 17:52:12;;;;;;;6.32;2.63;;;;;;;13.96;41.60;99149.84;10325645;28;20073;-79
2022/04/21 17:57:14;;;;;;;9.25;2.65;;;;;;;13.84;42.27;99158.75;10329613;28;20127;-79
2022/04/21 18:02:16;;;;;;;5.32;2.80;;;;;;;13.78;42.32;99154.84;10324438;28;20058;-79
2022/04/21 18:07:26;;;;;;;5.95;2.78;;;;;;;13.75;42.21;99156.91;10326128;28;20046;-79
2022/04/21 18:12:28;;;;;;;4.40;2.50;;;;;;;13.68;42.41;99158.38;10313592;28;20050;-79
2022/04/21 18:17:30;;;;;;;6.68;2.50;;;;;;;13.57;42.48;99151.44;10326306;28;20050;-78
2022/04/21 18:22:32;;;;;;;9.27;2.72;;;;;;;13.32;42.72;99159.66;10320828;28;20163;-78
2022/04/21 18:27:34;;;;;;;6.88;2.80;;;;;;;13.15;43.23;99164.66;10318773;28;20313;-79
2022/04/21 18:32:35;;;;;;;6.50;3.00;;;;;;;13.13;43.24;99161.31;10313089;28;20305;-79
2022/04/21 18:37:37;;;;;;;6.63;2.85;;;;;;;13.03;43.47;99173.53;10314077;28;20074;-79
2022/04/21 18:42:39;;;;;;;5.65;2.70;;;;;;;12.92;43.56;99172.59;10322629;28;20574;-79
2022/04/21 18:47:42;;;;;;;8.93;2.85;;;;;;;12.78;43.59;99178.13;10308353;28;20127;-77
2022/04/21 18:53:16;;;;;;;8.75;2.78;;;;;;;12.87;43.48;99171.31;10342739;28;20489;-78
2022/04/21 18:58:23;;;;;;;4.32;2.63;;;;;;;12.94;43.40;99159.38;10307048;28;20085;-77
2022/04/21 19:03:26;;;;;;;5.43;2.70;;;;;;;13.03;43.56;99163.03;10311326;28;20137;-77
2022/04/21 19:13:49;;;;;;;3.88;2.55;;;;;;;12.81;44.01;99156.06;10320285;28;20141;-77
2022/04/21 19:18:51;;;;;;;5.53;2.55;;;;;;;12.66;43.91;99152.06;10321275;28;20680;-77
2022/04/21 19:23:52;;;;;;;7.85;3.00;;;;;;;12.70;44.15;99150.88;10322195;28;20089;-77
2022/04/21 19:28:59;;;;;;;7.50;2.92;;;;;;;12.54;44.61;99156.47;10313016;28;20129;-77
2022/04/21 19:34:06;;;;;;;6.10;3.35;;;;;;;12.24;45.30;99156.25;10308837;28;20050;-77
2022/04/21 19:39:09;;;;;;;6.45;3.10;;;;;;;12.29;44.95;99150.69;10335130;28;20454;-77
2022/04/21 19:44:11;;;;;;;7.05;3.38;;;;;;;12.17;45.39;99149.00;10338581;28;20058;-77
2022/04/21 19:49:14;;;;;;;4.78;3.00;;;;;;;12.00;45.54;99153.78;10325625;28;20090;-77
2022/04/21 19:54:16;;;;;;;4.43;2.92;;;;;;;11.92;45.72;99152.72;10338057;28;20054;-77
2022/04/21 19:59:18;;;;;;;3.88;2.70;;;;;;;11.86;45.95;99155.81;10327053;28;20060;-77
2022/04/21 20:04:21;;;;;;;6.13;3.13;;;;;;;11.79;46.11;99157.22;10329399;28;20069;-77
2022/04/21 20:09:24;;;;;;;4.82;3.28;;;;;;;11.67;46.38;99155.53;10331864;28;20082;-77
2022/04/21 20:14:28;;;;;;;5.30;3.20;;;;;;;11.69;46.46;99162.34;10344296;28;20489;-78
2022/04/21 20:30:12;;;;;;;6.50;3.75;;;;;;;11.44;47.00;99153.84;10320773;28;19932;-77
2022/04/21 20:35:14;;;;;;;6.95;3.90;;;;;;;11.39;47.08;99158.59;10329610;28;20057;-77
2022/04/21 20:40:16;;;;;;;6.70;3.80;;;;;;;11.30;47.52;99157.47;10325200;28;20136;-78
2022/04/21 20:45:18;;;;;;;5.63;3.55;;;;;;;11.19;47.82;99145.19;10323254;28;20053;-78
2022/04/21 20:50:20;;;;;;;5.20;3.63;;;;;;;11.15;48.13;99148.97;10324273;28;20076;-78
2022/04/21 20:55:22;;;;;;;5.03;3.85;;;;;;;11.17;48.17;99152.31;10331929;28;20058;-78
2022/04/21 21:00:24;;;;;;;6.70;4.20;;;;;;;11.20;48.20;99152.09;10324229;28;20227;-78
2022/04/21 21:05:26;;;;;;;6.82;4.53;;;;;;;11.18;48.30;99147.94;10326145;28;20136;-77
2022/04/21 21:10:27;;;;;;;7.28;5.25;;;;;;;11.01;48.64;99141.28;10330964;28;20050;-78
2022/04/21 21:15:29;;;;;;;10.45;5.80;;;;;;;10.90;49.08;99148.28;10325401;28;20094;-78
2022/04/21 21:20:38;;;;;;;8.80;5.88;;;;;;;10.74;50.07;99145.94;10332752;28;20100;-78
2022/04/21 21:25:40;;;;;;;8.10;5.75;;;;;;;10.72;49.63;99150.47;10339692;28;20064;-78
2022/04/21 21:30:42;;;;;;;10.15;6.85;;;;;;;10.63;49.98;99156.34;10334848;28;20124;-78
2022/04/21 21:35:44;;;;;;;9.32;6.28;;;;;;;10.63;50.08;99150.28;10335038;28;20057;-78
2022/04/21 21:40:46;;;;;;;10.25;6.93;;;;;;;10.56;50.33;99154.28;10331847;28;20046;-79
2022/04/21 21:45:47;;;;;;;10.30;6.57;;;;;;;10.43;50.55;99152.56;10335923;28;20089;-78
2022/04/21 21:56:10;;;;;;;11.33;6.33;;;;;;;10.33;50.45;99159.38;10335725;28;20060;-78
2022/04/21 22:01:12;;;;;;;10.43;6.47;;;;;;;10.32;50.71;99157.69;10328297;28;20137;-78
2022/04/21 22:06:15;;;;;;;10.23;7.30;;;;;;;10.27;50.82;99164.19;10344324;28;20511;-78
2022/04/21 22:11:19;;;;;;;8.98;7.10;;;;;;;10.14;51.05;99152.94;10332709;28;20131;-78
2022/04/21 22:16:21;;;;;;;13.32;8.32;;;;;;;9.85;52.10;99162.78;10329637;28;20097;-79
2022/04/21 22:21:22;;;;;;;12.55;8.25;;;;;;;9.85;52.21;99159.38;10334332;28;20061;-78
2022/04/21 22:26:25;;;;;;;13.82;8.75;;;;;;;9.77;52.69;99159.88;10331328;28;20054;-78
2022/04/21 22:31:26;;;;;;;11.93;8.15;;;;;;;9.68;52.89;99155.28;10328778;28;20085;-78
2022/04/21 22:36:28;;;;;;;11.52;8.18;;;;;;;9.77;52.80;99153.84;10329585;28;20061;-78
2022/04/21 22:41:30;;;;;;;12.60;9.18;;;;;;;9.77;52.86;99146.00;10326913;28;20136;-78
2022/04/21 22:46:32;;;;;;;15.32;8.63;;;;;;;9.78;52.89;99145.88;10329447;28;20090;-78
2022/04/21 22:51:34;;;;;;;13.73;9.13;;;;;;;9.74;52.89;99139.19;10324865;28;20050;-78
2022/04/21 22:56:36;;;;;;;10.88;8.02;;;;;;;9.74;52.80;99133.13;10327266;28;20100;-78
2022/04/21 23:01:38;;;;;;;15.00;9.50;;;;;;;9.62;53.15;99133.03;10328112;28;20546;-78
2022/04/21 23:06:40;;;;;;;11.80;9.10;;;;;;;9.56;53.21;99132.59;10328510;28;20840;-78
2022/04/21 23:17:03;;;;;;;13.57;9.63;;;;;;;9.29;54.13;99108.38;10332010;28;20143;-78
2022/04/21 23:22:04;;;;;;;15.38;10.30;;;;;;;9.26;54.49;99117.22;10326652;28;20046;-78
2022/04/21 23:27:06;;;;;;;13.90;10.70;;;;;;;9.33;54.37;99115.88;10322745;28;20113;-78
2022/04/21 23:32:08;;;;;;;13.73;9.55;;;;;;;9.25;54.54;99105.13;10324702;28;20101;-78
2022/04/21 23:37:10;;;;;;;14.02;9.68;;;;;;;9.17;54.55;99094.38;10326938;28;20129;-78
2022/04/21 23:42:11;;;;;;;12.02;9.43;;;;;;;9.05;54.84;99095.19;10328013;28;20065;-78
2022/04/21 23:47:19;;;;;;;13.90;10.23;;;;;;;8.99;55.15;99090.41;10329608;28;20054;-78
2022/04/21 23:52:21;;;;;;;12.70;9.25;;;;;;;9.03;54.99;99088.41;10327851;28;20046;-78
2022/04/21 23:57:22;;;;;;;14.00;10.90;;;;;;;8.96;55.10;99081.91;10329356;28;20124;-78
